Pagrindinis puslapis
METAR-TAF:

METAR-TAF

Oro uostai :

Salvadoras, Salvadoras

platuma: 13-26N, ilguma: 089-03W, Aukštis: 25 m

Dabartinis oras

Ataskaita buvo paskelbta 1 valandą ir 6 minutes, ne 22:50 UTC
Vėjas 6 kt iš Pietų/Pietvakarių, svyruoja nuo Pietų/Pietryčių ir Vakarų
Temperatūra 31°C
Drėgmė 66%
Slėgis 1008 hPa
Matomumas: 9000 m
Mažai debesys ne aukštis 6300 ft

METAR: MSLP 082250Z 21006KT 150V260 9000 FEW063 31/24 Q1008 A2977 NOSIG RMK HZ

Laikas: 17:56 (23:56 UTC)

Prognozė

Ataskaita buvo paskelbta 2 valandos ir 31 minutes, ne 21:25 UTC
Prognozė galioja nuo 09 metu 00 UTC su 09 metu 24 UTC
Vėjas 3 kt nuo kintamojo kryptimis
Matomumas 10 km arba daugiau
Mažai debesys ne aukštis 7000 ft
Nuo 09 metu 0600 UTC
Vėjas 6 kt iš Rytų/Šiaurės Rytų
Matomumas: 8000 m
Mažai debesys ne aukštis 7000 ft
Nuo 09 metu 1800 UTC
Vėjas 12 kt iš Pietų/Pietvakarių
Matomumas 10 km arba daugiau
Mažai debesys ne aukštis 3700 ft

TAF: MSLP 082125Z 0900/0924 VRB03KT 9999 FEW070 TX34/0918Z TN23/0912Z FM090600 07006KT 8000 FEW070 FM091800 21012KT 9999 FEW037

Orai ataskaitas ir orų prognozės (METAR, TAF).

turimą stotys yra geltonos ir raudonos taškus žemėlapyje.

Perkelti pele per norėdami pamatyti stoties vardą.

Tada spustelėkite, norėdami matyti oro stebėjimo ir prognozės.

Norėdami pakeisti žemėlapį: spustelėkite ant žalios mygtukų su juodo kryžiaus žemyn,; žalią mygtuką su brūkšneliu, jei norite nutolinti; arba žalių rodyklių gretimoms žemėlapius.


METAR-TAF: